createdAt,value
2023-04-16T00:02:09.841Z,48.14
2023-04-16T00:04:37.003Z,48.28
2023-04-16T00:07:04.628Z,48.80
2023-04-16T00:09:32.099Z,48.86
2023-04-16T00:11:59.200Z,49.32
2023-04-16T00:14:26.296Z,49.35
2023-04-16T00:16:53.406Z,49.43
2023-04-16T00:19:20.688Z,49.16
2023-04-16T00:21:47.890Z,49.73
2023-04-16T00:24:15.103Z,49.35
2023-04-16T00:26:44.425Z,49.18
2023-04-16T00:29:11.577Z,49.71
2023-04-16T00:31:39.198Z,49.08
2023-04-16T00:34:06.529Z,48.79
2023-04-16T00:36:33.588Z,49.21
2023-04-16T00:39:00.641Z,48.83
2023-04-16T00:41:27.961Z,49.14
2023-04-16T00:43:54.920Z,49.32
2023-04-16T00:46:24.162Z,49.29
2023-04-16T00:48:53.093Z,49.04
2023-04-16T00:51:21.793Z,49.38
2023-04-16T00:53:49.244Z,49.83
2023-04-16T00:56:17.650Z,49.58
2023-04-16T00:58:45.050Z,50.56
2023-04-16T01:01:14.440Z,50.42
2023-04-16T01:03:47.108Z,50.13
2023-04-16T01:06:16.781Z,50.55
2023-04-16T01:08:44.258Z,50.48
2023-04-16T01:11:12.360Z,49.82
2023-04-16T01:13:39.882Z,49.89
2023-04-16T01:16:11.599Z,49.95
2023-04-16T01:18:39.355Z,50.51
2023-04-16T01:21:07.058Z,50.16
2023-04-16T01:23:34.373Z,50.02
2023-04-16T01:26:01.567Z,50.14
2023-04-16T01:28:28.693Z,50.02
2023-04-16T01:30:55.855Z,50.02
2023-04-16T01:33:22.942Z,50.48
2023-04-16T01:35:50.100Z,50.41
2023-04-16T01:38:17.519Z,50.14
2023-04-16T01:40:44.680Z,50.07
2023-04-16T01:43:11.729Z,50.33
2023-04-16T01:45:38.699Z,49.95
2023-04-16T01:48:06.043Z,49.98
2023-04-16T01:50:33.851Z,50.44
2023-04-16T01:53:02.336Z,50.33
2023-04-16T01:55:29.303Z,49.73
2023-04-16T01:57:56.559Z,50.31
2023-04-16T02:00:23.551Z,50.11
2023-04-16T02:02:50.788Z,49.86
2023-04-16T02:05:18.163Z,49.99
2023-04-16T02:07:45.143Z,49.70
2023-04-16T02:10:12.190Z,49.90
2023-04-16T02:12:39.391Z,49.87
2023-04-16T02:15:07.417Z,50.11
2023-04-16T02:17:35.348Z,49.34
2023-04-16T02:20:05.789Z,49.96
2023-04-16T02:22:32.916Z,49.56
2023-04-16T02:24:59.970Z,49.56
2023-04-16T02:27:27.073Z,49.58
2023-04-16T02:29:54.245Z,48.92
2023-04-16T02:32:22.410Z,48.59
2023-04-16T02:34:49.770Z,48.95
2023-04-16T02:37:16.811Z,48.24
2023-04-16T02:39:44.208Z,48.67
2023-04-16T02:42:11.373Z,48.58
2023-04-16T02:44:38.326Z,48.35
2023-04-16T02:47:05.398Z,48.14
2023-04-16T02:49:32.511Z,48.11
2023-04-16T02:51:59.585Z,47.58
2023-04-16T02:54:26.709Z,47.87
2023-04-16T02:56:53.824Z,47.03
2023-04-16T02:59:20.859Z,46.87
2023-04-16T03:01:48.070Z,46.91
2023-04-16T03:04:15.190Z,46.46
2023-04-16T03:06:42.285Z,46.30
2023-04-16T03:09:09.615Z,46.23
2023-04-16T03:11:36.871Z,45.92
2023-04-16T03:14:03.918Z,46.08
2023-04-16T03:16:31.006Z,45.71
2023-04-16T03:18:58.112Z,45.89
2023-04-16T03:21:25.210Z,46.05
2023-04-16T03:23:53.536Z,45.88
2023-04-16T03:26:21.083Z,45.47
2023-04-16T03:28:48.290Z,45.39
2023-04-16T03:31:15.584Z,44.67
2023-04-16T03:33:42.907Z,44.89
2023-04-16T03:36:10.327Z,44.54
2023-04-16T03:38:37.497Z,44.38
2023-04-16T03:41:04.539Z,43.90
2023-04-16T03:43:31.656Z,43.54
2023-04-16T03:45:58.752Z,43.43
2023-04-16T03:48:26.183Z,43.54
2023-04-16T03:50:53.203Z,43.12
2023-04-16T03:53:20.132Z,42.60
2023-04-16T03:55:53.785Z,42.59
2023-04-16T03:58:21.335Z,41.77
2023-04-16T04:00:48.550Z,41.56
2023-04-16T04:03:18.829Z,40.67
2023-04-16T04:05:46.538Z,40.12
2023-04-16T04:08:13.651Z,39.90
2023-04-16T04:10:40.875Z,38.84
2023-04-16T04:13:08.181Z,37.85
2023-04-16T04:15:35.292Z,37.02
2023-04-16T04:18:02.280Z,36.46
2023-04-16T04:20:29.392Z,35.68
2023-04-16T04:22:56.442Z,34.96
2023-04-16T04:25:23.628Z,33.97
2023-04-16T04:27:50.710Z,32.15
2023-04-16T04:30:17.855Z,26.79
2023-04-16T04:32:45.113Z,21.05
2023-04-16T04:35:12.301Z,16.58
2023-04-16T04:37:39.537Z,13.48
2023-04-16T04:40:07.379Z,11.55
2023-04-16T04:42:34.557Z,9.77
2023-04-16T04:45:01.659Z,8.45
2023-04-16T04:47:33.444Z,7.19
2023-04-16T04:50:00.626Z,6.57
2023-04-16T04:52:27.723Z,6.03
2023-04-16T04:54:54.948Z,5.26
2023-04-16T04:57:21.977Z,4.45
2023-04-16T04:59:48.978Z,4.35
2023-04-16T05:02:16.300Z,3.77
2023-04-16T05:04:43.458Z,3.47
2023-04-16T05:07:10.831Z,2.96
2023-04-16T05:09:37.873Z,2.22
2023-04-16T05:12:05.147Z,2.76
2023-04-16T05:14:32.459Z,2.38
2023-04-16T05:16:59.558Z,1.95
2023-04-16T05:19:26.719Z,2.36
2023-04-16T05:21:54.693Z,1.90
2023-04-16T05:24:23.441Z,1.33
2023-04-16T05:26:50.509Z,1.94
2023-04-16T05:29:17.620Z,1.93
2023-04-16T05:31:44.833Z,1.05
2023-04-16T05:34:12.016Z,1.31
2023-04-16T05:36:38.971Z,1.14
2023-04-16T05:39:06.338Z,1.24
2023-04-16T05:41:33.930Z,0.51
2023-04-16T05:44:00.991Z,0.53
2023-04-16T05:46:28.048Z,0.52
2023-04-16T05:48:55.048Z,0.76
2023-04-16T05:51:24.614Z,0.30
2023-04-16T05:53:51.785Z,0.16
2023-04-16T05:56:19.074Z,0.21
2023-04-16T05:58:46.270Z,0.48
2023-04-16T06:01:13.566Z,0.52
2023-04-16T06:03:40.888Z,0.00
2023-04-16T06:06:09.096Z,0.00
2023-04-16T06:08:36.251Z,0.02
2023-04-16T06:11:03.846Z,0.00
2023-04-16T06:13:31.186Z,0.00
2023-04-16T06:15:58.725Z,0.00
2023-04-16T06:18:25.930Z,0.00
2023-04-16T06:20:53.325Z,0.00
2023-04-16T06:23:20.738Z,0.00
2023-04-16T06:25:47.834Z,0.00
2023-04-16T06:28:15.388Z,0.00
2023-04-16T06:30:53.492Z,0.00
2023-04-16T06:33:20.950Z,0.00
2023-04-16T06:35:48.032Z,0.00
2023-04-16T06:38:15.817Z,0.00
2023-04-16T06:40:42.920Z,0.00
2023-04-16T06:43:10.020Z,0.00
2023-04-16T06:45:37.197Z,0.00
2023-04-16T06:48:05.313Z,0.00
2023-04-16T06:50:32.469Z,0.00
2023-04-16T06:52:59.562Z,0.00
2023-04-16T06:55:26.607Z,0.00
2023-04-16T06:57:53.675Z,0.00
2023-04-16T07:00:20.997Z,0.00
2023-04-16T07:02:48.204Z,0.00
2023-04-16T07:05:15.407Z,0.00
2023-04-16T07:07:42.686Z,0.00
2023-04-16T07:10:10.200Z,0.00
2023-04-16T07:12:37.486Z,0.00
2023-04-16T07:15:05.769Z,0.00
2023-04-16T07:17:33.295Z,0.00
2023-04-16T07:20:00.673Z,0.00
2023-04-16T07:22:27.959Z,0.00
2023-04-16T07:24:55.900Z,0.00
2023-04-16T07:27:23.431Z,0.00
2023-04-16T07:29:51.138Z,0.00
2023-04-16T07:32:18.359Z,0.00
2023-04-16T07:34:45.573Z,0.00
2023-04-16T07:37:12.672Z,0.00
2023-04-16T07:39:40.215Z,0.00
2023-04-16T07:42:07.537Z,0.00
2023-04-16T07:44:34.881Z,0.00
2023-04-16T07:47:04.744Z,0.00
2023-04-16T07:49:32.499Z,0.00
2023-04-16T07:51:59.701Z,0.00
2023-04-16T07:54:28.838Z,0.00
2023-04-16T07:56:56.501Z,0.00
2023-04-16T07:59:24.540Z,0.00
2023-04-16T08:01:54.056Z,0.00
2023-04-16T08:04:25.647Z,0.00
2023-04-16T08:06:54.111Z,0.00
2023-04-16T08:09:22.534Z,0.00
2023-04-16T08:11:50.173Z,0.00
2023-04-16T08:14:21.118Z,0.00
2023-04-16T08:16:48.156Z,0.00
2023-04-16T08:19:15.361Z,0.00
2023-04-16T08:21:42.523Z,0.00
2023-04-16T08:24:09.611Z,0.00
2023-04-16T08:26:36.735Z,0.00
2023-04-16T08:29:05.952Z,0.00
2023-04-16T08:31:37.338Z,0.00
2023-04-16T08:34:06.026Z,0.00
2023-04-16T08:36:33.184Z,0.00
2023-04-16T08:39:00.870Z,0.00
2023-04-16T08:41:36.912Z,0.00
2023-04-16T08:44:09.533Z,0.00
2023-04-16T08:46:38.132Z,0.00
2023-04-16T08:49:08.757Z,0.00
2023-04-16T08:51:36.433Z,0.00
2023-04-16T08:54:05.843Z,0.00
2023-04-16T08:56:37.674Z,0.00
2023-04-16T08:59:08.600Z,0.00
2023-04-16T09:01:36.236Z,0.00
2023-04-16T09:04:04.271Z,0.00
2023-04-16T09:06:33.349Z,0.00
2023-04-16T09:09:04.813Z,0.00
2023-04-16T09:11:32.575Z,0.00
2023-04-16T09:14:01.032Z,0.00
2023-04-16T09:16:33.818Z,0.00
2023-04-16T09:19:00.828Z,0.00
2023-04-16T09:21:28.267Z,0.00
2023-04-16T09:23:55.742Z,0.00
2023-04-16T09:26:23.078Z,0.00
2023-04-16T09:28:51.640Z,0.00
2023-04-16T09:31:19.632Z,0.00
2023-04-16T09:34:03.301Z,0.00
2023-04-16T09:36:32.701Z,0.00
2023-04-16T09:39:00.365Z,0.00
2023-04-16T09:41:29.649Z,0.00
2023-04-16T09:44:07.079Z,0.00
2023-04-16T09:46:41.975Z,0.00
2023-04-16T09:49:10.702Z,0.00
2023-04-16T09:51:38.546Z,0.00
2023-04-16T09:54:07.169Z,0.00
2023-04-16T09:56:34.297Z,0.00
2023-04-16T09:59:01.288Z,0.00
2023-04-16T10:01:30.922Z,0.00
2023-04-16T10:04:00.115Z,0.00
2023-04-16T10:06:29.674Z,0.00
2023-04-16T10:08:57.431Z,0.00
2023-04-16T10:11:26.086Z,0.00
2023-04-16T10:13:53.661Z,0.00
2023-04-16T10:16:23.141Z,0.00
2023-04-16T10:18:50.175Z,0.00
2023-04-16T10:21:17.586Z,0.00
2023-04-16T10:23:44.991Z,0.00
2023-04-16T10:26:12.253Z,0.00
2023-04-16T10:28:39.430Z,0.00
2023-04-16T10:31:08.925Z,0.00
2023-04-16T10:33:39.649Z,0.00
2023-04-16T10:36:10.808Z,0.00
2023-04-16T10:38:49.773Z,0.00
2023-04-16T10:41:17.392Z,0.00
2023-04-16T10:43:47.010Z,0.00
2023-04-16T10:46:31.049Z,0.00
2023-04-16T10:49:03.092Z,0.00
2023-04-16T10:51:33.261Z,0.00
2023-04-16T10:54:19.664Z,0.00
2023-04-16T10:56:47.717Z,0.00
2023-04-16T10:59:19.352Z,0.00
2023-04-16T11:01:49.033Z,0.00
2023-04-16T11:04:22.344Z,0.00
2023-04-16T11:07:11.785Z,0.00
2023-04-16T11:09:53.304Z,0.00
2023-04-16T11:12:28.055Z,0.00
2023-04-16T11:15:02.870Z,0.00
2023-04-16T11:17:44.942Z,0.00
2023-04-16T11:20:21.291Z,0.00
2023-04-16T11:22:50.586Z,0.00
2023-04-16T11:25:25.233Z,0.00
2023-04-16T11:27:53.755Z,0.00
2023-04-16T11:30:35.186Z,0.00
2023-04-16T11:33:10.022Z,0.00
2023-04-16T11:35:39.383Z,0.00
2023-04-16T11:38:07.638Z,0.00
2023-04-16T11:40:35.452Z,0.01
2023-04-16T11:43:15.111Z,0.58
2023-04-16T11:45:59.750Z,0.28
2023-04-16T11:48:47.193Z,0.67
2023-04-16T11:51:14.906Z,0.90
2023-04-16T11:53:55.297Z,1.22
2023-04-16T11:56:30.575Z,2.08
2023-04-16T11:59:14.870Z,2.39
2023-04-16T12:01:46.149Z,2.74
2023-04-16T12:04:16.063Z,2.98
2023-04-16T12:07:11.447Z,3.58
2023-04-16T12:09:43.280Z,3.35
2023-04-16T12:12:33.484Z,3.85
2023-04-16T12:15:05.124Z,4.31
2023-04-16T12:17:37.935Z,4.73
2023-04-16T12:20:12.911Z,4.62
2023-04-16T12:23:01.646Z,4.97
2023-04-16T12:25:29.211Z,5.45
2023-04-16T12:27:58.367Z,5.69
2023-04-16T12:30:27.242Z,5.64
2023-04-16T12:33:18.138Z,5.77
2023-04-16T12:35:46.085Z,5.66
2023-04-16T12:38:15.991Z,6.16
2023-04-16T12:40:43.516Z,6.63
2023-04-16T12:43:16.391Z,6.34
2023-04-16T12:45:46.736Z,6.31
2023-04-16T12:48:13.987Z,6.83
2023-04-16T12:50:44.519Z,6.57
2023-04-16T12:53:12.120Z,6.40
2023-04-16T12:55:39.394Z,6.50
2023-04-16T12:58:07.232Z,7.07
2023-04-16T13:00:34.141Z,7.44
2023-04-16T13:03:01.504Z,7.63
2023-04-16T13:05:29.021Z,7.73
2023-04-16T13:07:56.262Z,8.22
2023-04-16T13:10:23.760Z,7.58
2023-04-16T13:12:50.997Z,7.62
2023-04-16T13:15:18.240Z,7.57
2023-04-16T13:17:45.536Z,7.59
2023-04-16T13:20:12.750Z,8.14
2023-04-16T13:22:39.898Z,8.46
2023-04-16T13:25:07.715Z,8.06
2023-04-16T13:27:34.805Z,7.83
2023-04-16T13:30:01.924Z,7.44
2023-04-16T13:32:32.367Z,7.79
2023-04-16T13:34:59.582Z,7.64
2023-04-16T13:37:26.722Z,7.36
2023-04-16T13:39:53.683Z,7.82
2023-04-16T13:42:20.955Z,7.77
2023-04-16T13:44:49.527Z,7.74
2023-04-16T13:47:17.250Z,8.03
2023-04-16T13:49:44.453Z,8.15
2023-04-16T13:52:11.644Z,8.08
2023-04-16T13:54:38.671Z,7.95
2023-04-16T13:57:05.855Z,8.18
2023-04-16T13:59:33.210Z,9.40
2023-04-16T14:02:00.544Z,10.07
2023-04-16T14:04:28.052Z,10.51
2023-04-16T14:06:55.034Z,10.15
2023-04-16T14:09:21.968Z,9.74
2023-04-16T14:11:49.137Z,9.50
2023-04-16T14:14:16.399Z,9.83
2023-04-16T14:16:43.674Z,10.06
2023-04-16T14:19:11.271Z,9.99
2023-04-16T14:21:38.522Z,10.15
2023-04-16T14:24:06.190Z,10.41
2023-04-16T14:26:33.392Z,10.28
2023-04-16T14:29:00.475Z,10.44
2023-04-16T14:31:27.710Z,10.74
2023-04-16T14:33:54.855Z,10.61
2023-04-16T14:36:21.985Z,10.83
2023-04-16T14:38:49.131Z,10.77
2023-04-16T14:41:16.312Z,11.09
2023-04-16T14:43:44.616Z,10.96
2023-04-16T14:46:11.811Z,11.06
2023-04-16T14:48:39.242Z,11.45
2023-04-16T14:51:07.343Z,11.65
2023-04-16T14:53:36.296Z,11.28
2023-04-16T14:56:03.832Z,11.61
2023-04-16T14:58:31.597Z,11.48
2023-04-16T15:00:59.315Z,11.86
2023-04-16T15:03:26.825Z,12.09
2023-04-16T15:05:56.693Z,12.17
2023-04-16T15:08:24.737Z,11.82
2023-04-16T15:10:52.075Z,12.16
2023-04-16T15:13:19.656Z,12.16
2023-04-16T15:15:46.827Z,12.35
2023-04-16T15:18:14.124Z,12.52
2023-04-16T15:20:41.494Z,12.54
2023-04-16T15:23:08.493Z,12.48
2023-04-16T15:25:35.664Z,12.70
2023-04-16T15:28:02.844Z,12.61
2023-04-16T15:30:31.457Z,12.84
2023-04-16T15:32:58.570Z,12.99
2023-04-16T15:35:25.620Z,12.94
2023-04-16T15:37:53.075Z,12.92
2023-04-16T15:40:20.847Z,13.05
2023-04-16T15:42:47.992Z,13.36
2023-04-16T15:45:15.076Z,13.21
2023-04-16T15:47:48.100Z,13.27
2023-04-16T15:50:15.459Z,13.31
2023-04-16T15:52:42.543Z,13.56
2023-04-16T15:55:10.182Z,13.63
2023-04-16T15:57:37.291Z,13.82
2023-04-16T16:00:13.375Z,13.79
2023-04-16T16:02:42.074Z,14.09
2023-04-16T16:05:18.934Z,14.33
2023-04-16T16:07:46.590Z,14.35
2023-04-16T16:10:13.734Z,14.47
2023-04-16T16:12:41.559Z,14.57
2023-04-16T16:15:11.302Z,14.76
2023-04-16T16:17:39.107Z,14.94
2023-04-16T16:20:10.687Z,14.95
2023-04-16T16:22:38.437Z,14.92
2023-04-16T16:25:07.832Z,14.99
2023-04-16T16:27:36.493Z,14.98
2023-04-16T16:30:06.685Z,14.96
2023-04-16T16:32:34.378Z,15.08
2023-04-16T16:35:01.692Z,14.93
2023-04-16T16:37:31.050Z,15.09
2023-04-16T16:39:58.173Z,14.94
2023-04-16T16:42:25.368Z,15.36
2023-04-16T16:44:53.888Z,15.76
2023-04-16T16:47:22.095Z,16.01
2023-04-16T16:49:49.231Z,16.07
2023-04-16T16:52:16.390Z,16.04
2023-04-16T16:54:43.560Z,15.88
2023-04-16T16:57:11.007Z,16.13
2023-04-16T16:59:37.948Z,16.21
2023-04-16T17:02:06.690Z,16.27
2023-04-16T17:04:33.843Z,16.21
2023-04-16T17:07:01.288Z,16.33
2023-04-16T17:09:28.348Z,16.47
2023-04-16T17:11:55.551Z,16.71
2023-04-16T17:14:22.788Z,16.72
2023-04-16T17:16:50.069Z,16.57
2023-04-16T17:19:18.128Z,16.68
2023-04-16T17:21:45.276Z,16.84
2023-04-16T17:24:12.608Z,16.80
2023-04-16T17:26:41.302Z,16.76
2023-04-16T17:29:08.288Z,16.71
2023-04-16T17:31:36.102Z,16.89
2023-04-16T17:34:06.081Z,17.04
2023-04-16T17:36:33.142Z,17.29
2023-04-16T17:39:00.206Z,17.38
2023-04-16T17:41:27.455Z,17.56
2023-04-16T17:43:54.752Z,17.57
2023-04-16T17:46:22.060Z,17.85
2023-04-16T17:48:49.319Z,17.87
2023-04-16T17:51:16.718Z,18.11
2023-04-16T17:53:44.838Z,17.97
2023-04-16T17:56:13.990Z,18.41
2023-04-16T17:58:41.099Z,18.61
2023-04-16T18:01:08.383Z,18.43
2023-04-16T18:03:35.987Z,18.53
2023-04-16T18:06:03.298Z,18.75
2023-04-16T18:08:30.585Z,18.79
2023-04-16T18:10:57.805Z,19.10
2023-04-16T18:13:25.117Z,19.29
2023-04-16T18:15:53.199Z,19.13
2023-04-16T18:18:21.614Z,19.17
2023-04-16T18:20:48.820Z,19.72
2023-04-16T18:23:15.913Z,20.05
2023-04-16T18:25:43.369Z,20.66
2023-04-16T18:28:13.640Z,20.83
2023-04-16T18:30:41.204Z,21.32
2023-04-16T18:33:34.242Z,21.11
2023-04-16T18:35:55.462Z,20.97
2023-04-16T18:38:23.097Z,21.39
2023-04-16T18:40:50.113Z,21.20
2023-04-16T18:43:17.301Z,21.40
2023-04-16T18:45:45.078Z,21.62
2023-04-16T18:48:12.263Z,21.88
2023-04-16T18:50:39.419Z,22.11
2023-04-16T18:53:06.645Z,22.60
2023-04-16T18:55:33.786Z,22.51
2023-04-16T18:58:01.070Z,22.81
2023-04-16T19:00:28.441Z,22.84
2023-04-16T19:02:58.635Z,23.07
2023-04-16T19:05:25.769Z,23.15
2023-04-16T19:07:53.439Z,23.24
2023-04-16T19:10:20.522Z,23.26
2023-04-16T19:12:47.811Z,23.75
2023-04-16T19:15:15.000Z,23.92
2023-04-16T19:17:42.292Z,23.83
2023-04-16T19:20:11.700Z,24.25
2023-04-16T19:22:38.936Z,24.16
2023-04-16T19:25:07.395Z,24.18
2023-04-16T19:27:35.037Z,24.38
2023-04-16T19:30:03.064Z,24.65
2023-04-16T19:32:32.761Z,24.54
2023-04-16T19:34:59.875Z,25.24
2023-04-16T19:37:27.425Z,24.86
2023-04-16T19:39:55.941Z,25.08
2023-04-16T19:42:24.598Z,25.29
2023-04-16T19:44:52.487Z,25.43
2023-04-16T19:47:20.243Z,25.70
2023-04-16T19:49:47.389Z,25.71
2023-04-16T19:52:16.562Z,26.34
2023-04-16T19:54:44.130Z,26.75
2023-04-16T19:57:12.776Z,26.94
2023-04-16T19:59:39.840Z,26.89
2023-04-16T20:02:07.442Z,26.96
2023-04-16T20:04:35.712Z,26.43
2023-04-16T20:07:02.820Z,26.34
2023-04-16T20:09:30.008Z,26.24
2023-04-16T20:11:58.166Z,26.63
2023-04-16T20:14:25.418Z,26.41
2023-04-16T20:16:52.907Z,26.94
2023-04-16T20:19:20.078Z,26.89
2023-04-16T20:21:47.161Z,27.24
2023-04-16T20:24:15.571Z,27.58
2023-04-16T20:26:42.727Z,27.54
2023-04-16T20:29:10.585Z,27.57
2023-04-16T20:31:37.749Z,27.92
2023-04-16T20:34:04.728Z,28.00
2023-04-16T20:36:32.141Z,27.91
2023-04-16T20:39:00.011Z,28.45
2023-04-16T20:41:27.487Z,28.34
2023-04-16T20:43:54.586Z,28.72
2023-04-16T20:46:26.109Z,28.58
2023-04-16T20:48:53.228Z,28.75
2023-04-16T20:51:20.354Z,28.81
2023-04-16T20:53:47.396Z,28.79
2023-04-16T20:56:17.335Z,29.19
2023-04-16T20:58:44.454Z,29.06
2023-04-16T21:01:11.590Z,29.28
2023-04-16T21:03:38.881Z,29.25
2023-04-16T21:06:06.159Z,29.47
2023-04-16T21:08:33.255Z,29.55
2023-04-16T21:11:00.325Z,29.70
2023-04-16T21:13:27.443Z,29.84
2023-04-16T21:15:54.655Z,30.13
2023-04-16T21:18:21.833Z,29.85
2023-04-16T21:20:48.932Z,30.05
2023-04-16T21:23:16.087Z,30.02
2023-04-16T21:25:43.118Z,30.33
2023-04-16T21:28:10.330Z,30.51
2023-04-16T21:30:37.470Z,30.51
2023-04-16T21:33:04.552Z,30.56
2023-04-16T21:35:33.323Z,30.64
2023-04-16T21:38:00.399Z,30.72
2023-04-16T21:40:27.470Z,30.76
2023-04-16T21:42:55.371Z,30.67
2023-04-16T21:45:22.470Z,30.88
2023-04-16T21:47:49.767Z,31.18
2023-04-16T21:50:17.132Z,31.37
2023-04-16T21:52:46.864Z,31.32
2023-04-16T21:55:14.822Z,31.39
2023-04-16T21:57:41.914Z,31.60
2023-04-16T22:00:13.904Z,31.24
2023-04-16T22:02:42.732Z,31.86
2023-04-16T22:05:11.505Z,32.01
2023-04-16T22:07:39.069Z,31.84
2023-04-16T22:10:07.215Z,31.83
2023-04-16T22:12:37.836Z,32.12
2023-04-16T22:15:09.220Z,31.92
2023-04-16T22:17:36.942Z,32.29
2023-04-16T22:20:10.206Z,32.50
2023-04-16T22:22:37.268Z,32.57
2023-04-16T22:25:04.776Z,32.99
2023-04-16T22:27:33.915Z,32.88
2023-04-16T22:30:01.941Z,33.38
2023-04-16T22:32:34.287Z,33.18
2023-04-16T22:35:02.151Z,33.62
2023-04-16T22:37:31.069Z,33.86
2023-04-16T22:39:58.277Z,34.36
2023-04-16T22:42:25.295Z,34.42
2023-04-16T22:44:52.526Z,34.95
2023-04-16T22:47:19.587Z,35.34
2023-04-16T22:49:47.650Z,35.26
2023-04-16T22:52:14.733Z,35.58
2023-04-16T22:54:41.753Z,35.44
2023-04-16T22:57:08.848Z,35.68
2023-04-16T22:59:35.863Z,36.02
2023-04-16T23:02:02.949Z,36.28
2023-04-16T23:04:30.141Z,36.17
2023-04-16T23:06:57.244Z,36.40
2023-04-16T23:09:24.378Z,36.74
2023-04-16T23:11:51.490Z,36.46
2023-04-16T23:14:18.817Z,36.84
2023-04-16T23:16:45.851Z,36.79
2023-04-16T23:19:15.156Z,37.03
2023-04-16T23:21:42.651Z,36.82
2023-04-16T23:24:10.102Z,37.11
2023-04-16T23:26:37.160Z,36.85
2023-04-16T23:29:04.200Z,37.14
2023-04-16T23:31:31.324Z,36.79
2023-04-16T23:33:58.507Z,37.11
2023-04-16T23:36:26.586Z,37.49
2023-04-16T23:38:54.126Z,36.98
2023-04-16T23:41:23.366Z,37.46
2023-04-16T23:43:50.376Z,37.20
2023-04-16T23:46:17.809Z,37.21
2023-04-16T23:48:44.814Z,37.55
2023-04-16T23:51:12.023Z,37.64
2023-04-16T23:53:41.032Z,37.60
2023-04-16T23:56:11.329Z,37.25
2023-04-16T23:58:39.038Z,37.60
